Time;durP1;ratioP1;P1;durP2;ratioP2;P2;SDS_P1;SDS_P2;PMS_P1;PMS_P2;Temp;Humidity;BMP_temperature;BMP_pressure;BME280_temperature;BME280_humidity;BME280_pressure;Samples;Min_cycle;Max_cycle;Signal;HPM_P1;HPM_P2
2021/12/19 00:04:39;;;;;;;;;;;;;;;3.97;100.00;100348.55;1698120;83;20968;-80
2021/12/19 00:09:40;;;;;;;;;;;;;;;4.13;100.00;100349.59;1696476;83;20157;-80
2021/12/19 00:12:06;;;;;;;;;;;;;;;4.09;100.00;100324.16;1700446;83;20193;-81
2021/12/19 00:14:32;;;;;;;;;;;;;;;4.09;100.00;100323.33;1698429;83;21144;-81
2021/12/19 00:16:57;;;;;;;;;;;;;;;4.12;100.00;100327.03;1701485;82;20203;-80
2021/12/19 00:19:23;;;;;;;;;;;;;;;4.00;100.00;100344.89;1699408;82;20827;-83
2021/12/19 00:21:49;;;;;;;;;;;;;;;3.95;100.00;100306.85;1702093;83;20118;-83
2021/12/19 00:24:15;;;;;;;;;;;;;;;4.06;100.00;100305.27;1700190;83;20289;-81
2021/12/19 00:26:40;;;;;;;;;;;;;;;4.04;100.00;100335.87;1698623;83;21095;-80
2021/12/19 00:29:06;;;;;;;;;;;;;;;3.94;100.00;100299.95;1692438;83;20878;-81
2021/12/19 00:31:32;;;;;;;;;;;;;;;3.91;100.00;100310.62;1706115;83;20267;-79
2021/12/19 00:33:58;;;;;;;;;;;;;;;4.00;100.00;100295.25;1699082;83;20752;-80
2021/12/19 00:36:23;;;;;;;;;;;;;;;3.98;100.00;100302.34;1701572;82;20311;-79
2021/12/19 00:38:49;;;;;;;;;;;;;;;3.97;100.00;100292.86;1694608;83;21004;-81
2021/12/19 00:41:14;;;;;;;;;;;;;;;3.97;100.00;100278.00;1701021;83;20154;-79
2021/12/19 00:43:45;;;;;;;;;;;;;;;4.02;100.00;100286.33;1700305;82;20715;-79
2021/12/19 00:46:12;;;;;;;;;;;;;;;4.08;100.00;100270.21;1694518;83;20175;-79
2021/12/19 00:48:42;;;;;;;;;;;;;;;4.01;100.00;100269.46;1706357;83;20190;-83
2021/12/19 00:51:09;;;;;;;;;;;;;;;3.90;100.00;100278.92;1695701;83;21009;-79
2021/12/19 00:53:35;;;;;;;;;;;;;;;3.89;100.00;100265.48;1696372;83;20134;-79
2021/12/19 00:56:01;;;;;;;;;;;;;;;4.02;100.00;100235.86;1698608;83;20267;-82
2021/12/19 00:58:26;;;;;;;;;;;;;;;4.07;100.00;100225.90;1703672;83;20258;-79
2021/12/19 01:00:52;;;;;;;;;;;;;;;3.97;100.00;100222.31;1701109;83;20198;-80
2021/12/19 01:03:18;;;;;;;;;;;;;;;3.99;100.00;100215.19;1692684;83;21262;-84
2021/12/19 01:05:43;;;;;;;;;;;;;;;4.00;100.00;100240.37;1683606;83;20239;-82
2021/12/19 01:08:11;;;;;;;;;;;;;;;3.93;100.00;100247.35;1688572;83;20225;-80
2021/12/19 01:10:37;;;;;;;;;;;;;;;3.88;100.00;100232.46;1680950;83;20140;-84
2021/12/19 01:13:02;;;;;;;;;;;;;;;3.94;100.00;100224.66;1682363;83;20293;-80
2021/12/19 01:15:28;;;;;;;;;;;;;;;3.93;100.00;100213.39;1684481;83;22405;-79
2021/12/19 01:17:54;;;;;;;;;;;;;;;4.01;100.00;100202.83;1684411;83;20194;-83
2021/12/19 01:20:23;;;;;;;;;;;;;;;4.01;100.00;100200.22;1685330;83;20135;-81
2021/12/19 01:22:49;;;;;;;;;;;;;;;3.91;100.00;100186.52;1676325;83;20614;-80
2021/12/19 01:25:15;;;;;;;;;;;;;;;3.88;100.00;100185.44;1666235;83;20194;-81
2021/12/19 01:27:40;;;;;;;;;;;;;;;3.82;100.00;100175.92;1679989;83;22168;-81
2021/12/19 01:30:07;;;;;;;;;;;;;;;3.80;100.00;100169.50;1684761;83;20899;-81
2021/12/19 01:32:33;;;;;;;;;;;;;;;3.83;100.00;100186.26;1675445;83;20193;-81
2021/12/19 01:34:58;;;;;;;;;;;;;;;3.87;100.00;100154.20;1659265;83;20760;-78
2021/12/19 01:37:25;;;;;;;;;;;;;;;3.81;100.00;100167.71;1680133;83;20162;-79
2021/12/19 01:39:53;;;;;;;;;;;;;;;3.91;100.00;100170.84;1681031;83;21156;-83
2021/12/19 01:42:20;;;;;;;;;;;;;;;3.92;100.00;100150.31;1678734;83;20171;-83
2021/12/19 01:44:47;;;;;;;;;;;;;;;3.86;100.00;100155.17;1682298;83;20469;-80
2021/12/19 01:47:15;;;;;;;;;;;;;;;3.92;100.00;100152.93;1675315;83;20224;-80
2021/12/19 01:49:42;;;;;;;;;;;;;;;3.81;100.00;100151.59;1675636;83;20164;-82
2021/12/19 01:52:10;;;;;;;;;;;;;;;3.91;100.00;100139.50;1677729;83;21897;-81
2021/12/19 01:54:37;;;;;;;;;;;;;;;3.83;100.00;100136.63;1683636;83;20490;-79
2021/12/19 01:57:03;;;;;;;;;;;;;;;3.88;100.00;100116.21;1691845;83;20514;-78
2021/12/19 01:59:29;;;;;;;;;;;;;;;3.85;100.00;100139.13;1682742;83;20231;-79
2021/12/19 02:01:55;;;;;;;;;;;;;;;3.84;100.00;100133.53;1681302;83;20167;-79
2021/12/19 02:04:29;;;;;;;;;;;;;;;3.82;100.00;100107.52;1672355;83;21094;-77
2021/12/19 02:06:50;;;;;;;;;;;;;;;3.82;100.00;100136.25;1689246;83;20535;-78
2021/12/19 02:09:17;;;;;;;;;;;;;;;3.86;100.00;100067.17;1665113;83;20203;-79
2021/12/19 02:11:45;;;;;;;;;;;;;;;3.86;100.00;100065.88;1667086;83;21036;-79
2021/12/19 02:14:11;;;;;;;;;;;;;;;3.91;100.00;100085.12;1681523;83;20224;-80
2021/12/19 02:16:40;;;;;;;;;;;;;;;3.85;100.00;100034.16;1686533;83;21172;-80
2021/12/19 02:19:06;;;;;;;;;;;;;;;3.88;100.00;100049.59;1686097;83;20466;-81
2021/12/19 02:21:31;;;;;;;;;;;;;;;3.88;100.00;100039.15;1683622;83;20265;-80
2021/12/19 02:24:01;;;;;;;;;;;;;;;3.87;100.00;100029.67;1685448;83;20204;-80
2021/12/19 02:26:30;;;;;;;;;;;;;;;3.94;100.00;100021.70;1679888;83;20119;-80
2021/12/19 02:28:56;;;;;;;;;;;;;;;3.85;100.00;100013.26;1691740;83;21358;-79
2021/12/19 02:31:22;;;;;;;;;;;;;;;3.93;100.00;100013.53;1685514;83;20721;-79
2021/12/19 02:34:14;;;;;;;;;;;;;;;3.93;100.00;100016.14;1661968;83;20152;-83
2021/12/19 02:36:54;;;;;;;;;;;;;;;3.87;100.00;100013.14;1682034;83;20137;-79
2021/12/19 02:50:08;;;;;;;;;;;;;;;3.97;100.00;100002.84;1680635;83;20521;-81
2021/12/19 02:52:36;;;;;;;;;;;;;;;4.04;100.00;99985.73;1681159;83;20211;-78
2021/12/19 02:55:05;;;;;;;;;;;;;;;3.99;100.00;99965.19;1664267;83;21092;-78
2021/12/19 02:57:32;;;;;;;;;;;;;;;3.95;100.00;99997.73;1682339;83;21157;-80
2021/12/19 03:00:00;;;;;;;;;;;;;;;4.04;100.00;99972.21;1657590;83;20195;-80
2021/12/19 03:02:27;;;;;;;;;;;;;;;3.92;100.00;99988.34;1687905;83;20576;-79
2021/12/19 03:04:59;;;;;;;;;;;;;;;3.93;100.00;99962.59;1687826;83;20663;-82
2021/12/19 03:07:25;;;;;;;;;;;;;;;4.00;100.00;99976.48;1692782;83;22039;-80
2021/12/19 03:10:35;;;;;;;;;;;;;;;3.93;100.00;99953.44;1694115;83;20195;-78
2021/12/19 03:18:07;;;;;;;;;;;;;;;4.06;100.00;99939.44;1695304;83;20228;-79
2021/12/19 03:20:35;;;;;;;;;;;;;;;4.05;100.00;99940.37;1692624;83;21101;-78
2021/12/19 03:23:01;;;;;;;;;;;;;;;4.01;100.00;99937.63;1696592;83;20230;-79
2021/12/19 03:25:29;;;;;;;;;;;;;;;4.07;100.00;99922.78;1693290;83;20252;-80
2021/12/19 03:27:57;;;;;;;;;;;;;;;4.06;100.00;99929.80;1638572;83;20627;-79
2021/12/19 03:30:24;;;;;;;;;;;;;;;4.04;100.00;99902.12;1666317;83;20200;-80
2021/12/19 03:32:51;;;;;;;;;;;;;;;4.19;100.00;99906.62;1695197;83;21088;-79
2021/12/19 03:35:19;;;;;;;;;;;;;;;4.27;100.00;99919.45;1696258;83;20505;-81
2021/12/19 03:37:45;;;;;;;;;;;;;;;4.26;100.00;99886.42;1691939;83;20135;-80
2021/12/19 03:40:13;;;;;;;;;;;;;;;4.25;100.00;99883.92;1693347;83;20163;-77
2021/12/19 03:42:44;;;;;;;;;;;;;;;4.23;100.00;99891.89;1695250;83;20224;-81
2021/12/19 03:45:13;;;;;;;;;;;;;;;4.26;100.00;99887.72;1688976;83;21193;-80
2021/12/19 03:47:42;;;;;;;;;;;;;;;4.24;100.00;99872.66;1693313;83;20896;-80
2021/12/19 03:50:09;;;;;;;;;;;;;;;4.21;100.00;99865.05;1690673;83;20156;-80
2021/12/19 03:52:37;;;;;;;;;;;;;;;4.32;100.00;99868.12;1661931;83;20211;-80
2021/12/19 03:55:02;;;;;;;;;;;;;;;4.30;100.00;99861.70;1693361;83;20184;-77
2021/12/19 03:57:28;;;;;;;;;;;;;;;4.34;100.00;99866.20;1695643;83;21073;-80
2021/12/19 03:59:54;;;;;;;;;;;;;;;4.40;100.00;99843.48;1695879;83;20147;-77
2021/12/19 04:02:25;;;;;;;;;;;;;;;4.34;100.00;99856.23;1695644;83;21053;-77
2021/12/19 04:04:47;;;;;;;;;;;;;;;4.39;100.00;99838.39;1685597;83;20497;-78
2021/12/19 04:07:12;;;;;;;;;;;;;;;4.46;100.00;99830.41;1656281;85;20219;-80
2021/12/19 04:09:38;;;;;;;;;;;;;;;4.48;100.00;99823.26;1675501;83;21134;-78
2021/12/19 04:12:07;;;;;;;;;;;;;;;4.50;100.00;99839.64;1674798;85;20215;-78
2021/12/19 04:14:32;;;;;;;;;;;;;;;4.53;100.00;99817.17;1678109;85;20504;-79
2021/12/19 04:16:58;;;;;;;;;;;;;;;4.49;100.00;99819.70;1674258;85;20120;-78
2021/12/19 04:19:26;;;;;;;;;;;;;;;4.55;100.00;99817.05;1653377;85;20215;-81
2021/12/19 04:21:53;;;;;;;;;;;;;;;4.51;100.00;99820.88;1679722;85;21378;-79
2021/12/19 04:24:23;;;;;;;;;;;;;;;4.57;100.00;99793.75;1650889;85;20833;-81
2021/12/19 04:26:53;;;;;;;;;;;;;;;4.41;100.00;99792.02;1677109;83;20359;-81
2021/12/19 04:29:18;;;;;;;;;;;;;;;4.46;100.00;99791.19;1680057;83;20163;-79
2021/12/19 04:31:48;;;;;;;;;;;;;;;4.46;100.00;99782.86;1681182;85;20141;-80
2021/12/19 04:34:18;;;;;;;;;;;;;;;4.45;100.00;99793.44;1673847;85;20157;-79
2021/12/19 04:36:51;;;;;;;;;;;;;;;4.64;100.00;99767.91;1674119;85;20930;-80
2021/12/19 04:39:30;;;;;;;;;;;;;;;4.50;100.00;99779.50;1671935;85;20499;-79
2021/12/19 04:43:23;;;;;;;;;;;;;;;4.62;100.00;99758.88;1672113;85;20136;-78
2021/12/19 04:57:40;;;;;;;;;;;;;;;4.63;100.00;99734.39;1674649;85;20145;-79
2021/12/19 05:00:11;;;;;;;;;;;;;;;4.72;100.00;99730.66;1671929;85;20184;-81
2021/12/19 05:02:46;;;;;;;;;;;;;;;4.86;100.00;99742.08;1675934;85;20172;-81
2021/12/19 05:15:53;;;;;;;;;;;;;;;4.96;100.00;99725.97;1681750;83;20282;-78
2021/12/19 05:18:23;;;;;;;;;;;;;;;4.93;100.00;99726.22;1682783;83;20100;-78
2021/12/19 05:20:55;;;;;;;;;;;;;;;4.96;100.00;99730.38;1687051;83;20224;-81
2021/12/19 05:23:27;;;;;;;;;;;;;;;4.95;100.00;99732.64;1687572;83;20254;-82
2021/12/19 05:25:46;;;;;;;;;;;;;;;4.95;100.00;99740.48;1686706;83;20146;-78
2021/12/19 05:28:12;;;;;;;;;;;;;;;5.07;100.00;99743.86;1683007;83;20181;-82
2021/12/19 05:30:40;;;;;;;;;;;;;;;5.03;100.00;99738.89;1682605;83;20323;-79
2021/12/19 05:33:07;;;;;;;;;;;;;;;5.03;100.00;99765.05;1689178;83;20214;-79
2021/12/19 05:36:02;;;;;;;;;;;;;;;5.13;100.00;99736.80;1694151;83;20260;-80
2021/12/19 05:46:22;;;;;;;;;;;;;;;5.37;100.00;99720.25;1683994;83;20180;-81
2021/12/19 05:48:50;;;;;;;;;;;;;;;5.26;100.00;99732.14;1659106;83;20182;-81
2021/12/19 05:51:16;;;;;;;;;;;;;;;5.33;100.00;99728.51;1682924;83;21111;-81
2021/12/19 05:53:42;;;;;;;;;;;;;;;5.34;100.00;99727.06;1682819;83;21040;-79
2021/12/19 05:56:14;;;;;;;;;;;;;;;5.42;100.00;99716.42;1695245;83;20532;-79
2021/12/19 05:58:41;;;;;;;;;;;;;;;5.45;100.00;99713.53;1693038;83;20628;-80
2021/12/19 06:01:10;;;;;;;;;;;;;;;5.44;100.00;99719.72;1683973;83;20604;-80
2021/12/19 06:03:40;;;;;;;;;;;;;;;5.46;100.00;99706.03;1682391;83;21919;-79
2021/12/19 06:06:07;;;;;;;;;;;;;;;5.49;100.00;99691.36;1675168;83;20987;-79
2021/12/19 06:08:35;;;;;;;;;;;;;;;5.47;100.00;99699.36;1662191;84;20236;-78
2021/12/19 06:11:04;;;;;;;;;;;;;;;5.47;100.00;99698.05;1665418;85;20221;-79
2021/12/19 06:13:29;;;;;;;;;;;;;;;5.52;100.00;99690.60;1664691;85;20206;-78
2021/12/19 06:15:58;;;;;;;;;;;;;;;5.53;100.00;99679.64;1666230;85;21129;-79
2021/12/19 06:18:24;;;;;;;;;;;;;;;5.51;100.00;99689.43;1656321;85;20204;-78
2021/12/19 06:20:50;;;;;;;;;;;;;;;5.57;100.00;99683.66;1657040;85;20219;-81
2021/12/19 06:23:16;;;;;;;;;;;;;;;5.51;100.00;99669.78;1629911;85;20688;-81
2021/12/19 06:25:48;;;;;;;;;;;;;;;5.54;100.00;99670.83;1662121;85;20275;-78
2021/12/19 06:28:16;;;;;;;;;;;;;;;5.56;100.00;99653.17;1660942;85;20940;-79
2021/12/19 06:30:42;;;;;;;;;;;;;;;5.53;100.00;99640.35;1661608;85;21215;-78
2021/12/19 06:33:08;;;;;;;;;;;;;;;5.53;100.00;99641.20;1669475;85;20263;-79
2021/12/19 06:35:35;;;;;;;;;;;;;;;5.61;100.00;99633.13;1660678;85;20967;-78
2021/12/19 06:38:01;;;;;;;;;;;;;;;5.59;100.00;99660.76;1659505;84;20168;-79
2021/12/19 06:40:27;;;;;;;;;;;;;;;5.64;100.00;99645.48;1664014;85;21989;-80
2021/12/19 06:42:58;;;;;;;;;;;;;;;5.67;100.00;99647.83;1632681;85;20141;-79
2021/12/19 06:45:27;;;;;;;;;;;;;;;5.70;100.00;99638.84;1662893;85;20589;-81
2021/12/19 06:47:56;;;;;;;;;;;;;;;5.65;100.00;99644.50;1634269;85;20833;-80
2021/12/19 06:50:26;;;;;;;;;;;;;;;5.59;100.00;99671.23;1664314;85;20208;-81
2021/12/19 06:52:52;;;;;;;;;;;;;;;5.70;100.00;99646.70;1652737;85;21151;-81
2021/12/19 06:55:17;;;;;;;;;;;;;;;5.72;100.00;99643.00;1630052;85;21156;-81
2021/12/19 06:57:45;;;;;;;;;;;;;;;5.69;100.00;99636.72;1627567;85;20253;-81
2021/12/19 07:00:17;;;;;;;;;;;;;;;5.78;100.00;99623.29;1657616;85;20623;-84
2021/12/19 07:02:45;;;;;;;;;;;;;;;5.79;100.00;99639.83;1662776;85;20189;-81
2021/12/19 07:05:10;;;;;;;;;;;;;;;5.77;100.00;99626.87;1633531;83;21134;-80
2021/12/19 07:07:36;;;;;;;;;;;;;;;5.84;100.00;99627.13;1687453;83;20690;-81
2021/12/19 07:10:03;;;;;;;;;;;;;;;5.82;100.00;99639.55;1684840;83;20131;-83
2021/12/19 07:12:33;;;;;;;;;;;;;;;5.78;100.00;99636.85;1687039;83;20168;-79
2021/12/19 07:15:01;;;;;;;;;;;;;;;5.72;100.00;99629.90;1680914;83;20223;-80
2021/12/19 07:17:30;;;;;;;;;;;;;;;5.73;100.00;99649.91;1679869;83;20334;-83
2021/12/19 07:20:00;;;;;;;;;;;;;;;5.80;100.00;99638.38;1685149;83;20692;-81
2021/12/19 07:22:27;;;;;;;;;;;;;;;5.82;100.00;99634.31;1681436;83;20535;-81
2021/12/19 07:24:54;;;;;;;;;;;;;;;5.69;100.00;99665.53;1686511;83;20152;-81
2021/12/19 07:27:19;;;;;;;;;;;;;;;5.80;100.00;99644.11;1698178;83;20267;-81
2021/12/19 07:29:48;;;;;;;;;;;;;;;5.86;100.00;99643.56;1690265;83;21095;-81
2021/12/19 07:32:16;;;;;;;;;;;;;;;5.76;100.00;99636.98;1691927;83;20485;-81
2021/12/19 07:34:46;;;;;;;;;;;;;;;5.73;100.00;99640.73;1693408;83;20193;-79
2021/12/19 07:37:14;;;;;;;;;;;;;;;5.75;100.00;99625.69;1686036;83;20143;-79
2021/12/19 07:40:11;;;;;;;;;;;;;;;5.71;100.00;99619.56;1689708;83;20762;-81
2021/12/19 07:42:12;;;;;;;;;;;;;;;5.68;100.00;99628.51;1680960;83;20277;-83
2021/12/19 07:44:38;;;;;;;;;;;;;;;5.70;100.00;99627.06;1681856;83;20146;-84
2021/12/19 07:47:07;;;;;;;;;;;;;;;5.69;100.00;99649.82;1652727;83;20183;-81
2021/12/19 07:49:33;;;;;;;;;;;;;;;5.77;100.00;99630.80;1683567;83;20199;-79
2021/12/19 07:51:59;;;;;;;;;;;;;;;5.78;100.00;99641.63;1664325;83;20224;-81
2021/12/19 07:54:24;;;;;;;;;;;;;;;5.69;100.00;99627.55;1678181;83;21191;-80
2021/12/19 07:56:51;;;;;;;;;;;;;;;5.70;100.00;99627.91;1692031;83;20152;-80
2021/12/19 07:59:17;;;;;;;;;;;;;;;5.77;100.00;99628.67;1684730;83;20523;-83
2021/12/19 08:01:43;;;;;;;;;;;;;;;5.72;100.00;99629.90;1680368;83;20199;-81
2021/12/19 08:04:08;;;;;;;;;;;;;;;5.77;100.00;99622.94;1678162;83;20135;-81
2021/12/19 08:06:34;;;;;;;;;;;;;;;5.77;100.00;99611.64;1683476;83;22520;-82
2021/12/19 08:09:08;;;;;;;;;;;;;;;5.75;100.00;99630.94;1680181;83;20127;-82
2021/12/19 08:11:43;;;;;;;;;;;;;;;5.69;100.00;99624.94;1685933;83;20591;-79
2021/12/19 08:14:10;;;;;;;;;;;;;;;5.75;100.00;99614.40;1649549;83;20206;-81
2021/12/19 08:16:40;;;;;;;;;;;;;;;5.70;100.00;99608.27;1652753;83;20652;-81
2021/12/19 08:19:07;;;;;;;;;;;;;;;5.65;100.00;99632.71;1684823;83;20166;-80
2021/12/19 08:21:33;;;;;;;;;;;;;;;5.79;100.00;99605.77;1685780;83;20564;-81
2021/12/19 08:24:02;;;;;;;;;;;;;;;5.64;100.00;99627.15;1648769;83;20185;-83
2021/12/19 08:26:29;;;;;;;;;;;;;;;5.67;100.00;99609.84;1669317;83;20407;-82
2021/12/19 08:28:57;;;;;;;;;;;;;;;5.71;100.00;99587.63;1687255;83;20212;-82
2021/12/19 08:31:23;;;;;;;;;;;;;;;5.67;100.00;99616.39;1683552;83;21104;-78
2021/12/19 08:33:49;;;;;;;;;;;;;;;5.64;100.00;99623.22;1676544;83;20491;-81
2021/12/19 08:36:15;;;;;;;;;;;;;;;5.79;100.00;99613.63;1682504;83;20163;-80
2021/12/19 08:38:40;;;;;;;;;;;;;;;5.78;100.00;99597.55;1685649;83;20187;-84
2021/12/19 08:41:06;;;;;;;;;;;;;;;5.82;100.00;99593.70;1676997;83;20283;-83
2021/12/19 08:43:32;;;;;;;;;;;;;;;5.77;100.00;99615.57;1685564;83;21260;-82
2021/12/19 08:45:57;;;;;;;;;;;;;;;5.79;100.00;99590.86;1686112;83;20156;-83
2021/12/19 08:48:23;;;;;;;;;;;;;;;5.72;100.00;99602.39;1686291;83;20154;-83
2021/12/19 08:50:49;;;;;;;;;;;;;;;5.75;100.00;99596.87;1691680;83;20164;-81
2021/12/19 08:53:14;;;;;;;;;;;;;;;5.86;100.00;99618.67;1682556;83;20134;-84
2021/12/19 08:55:40;;;;;;;;;;;;;;;5.80;100.00;99608.74;1680268;83;22296;-83
2021/12/19 08:58:05;;;;;;;;;;;;;;;5.84;100.00;99591.76;1679561;83;20148;-79
2021/12/19 09:00:33;;;;;;;;;;;;;;;5.88;100.00;99608.87;1683524;83;20137;-79
2021/12/19 09:02:58;;;;;;;;;;;;;;;5.84;100.00;99602.23;1686227;83;20117;-86
2021/12/19 09:05:25;;;;;;;;;;;;;;;5.84;100.00;99614.03;1678299;83;20191;-83
2021/12/19 09:07:51;;;;;;;;;;;;;;;5.82;100.00;99627.27;1680754;83;21096;-81
2021/12/19 09:10:17;;;;;;;;;;;;;;;5.85;100.00;99641.89;1689963;83;20472;-87
2021/12/19 09:12:42;;;;;;;;;;;;;;;5.91;100.00;99618.58;1681357;83;20148;-85
2021/12/19 09:15:08;;;;;;;;;;;;;;;5.87;100.00;99621.61;1682474;83;20131;-81
2021/12/19 09:17:33;;;;;;;;;;;;;;;5.89;100.00;99624.94;1687903;83;20225;-85
2021/12/19 09:20:01;;;;;;;;;;;;;;;5.92;100.00;99643.83;1680082;83;21094;-86
2021/12/19 09:22:32;;;;;;;;;;;;;;;6.10;100.00;99622.99;1694382;83;20160;-85
2021/12/19 09:24:59;;;;;;;;;;;;;;;6.06;100.00;99620.33;1708780;82;20616;-83
2021/12/19 09:27:25;;;;;;;;;;;;;;;6.13;100.00;99639.43;1699883;82;20208;-82
2021/12/19 09:29:55;;;;;;;;;;;;;;;6.13;100.00;99618.45;1701403;82;20209;-82
2021/12/19 09:32:22;;;;;;;;;;;;;;;6.14;100.00;99621.41;1665037;82;20855;-83
2021/12/19 09:34:48;;;;;;;;;;;;;;;6.18;100.00;99615.73;1702392;82;20987;-83
2021/12/19 09:37:15;;;;;;;;;;;;;;;6.21;100.00;99607.59;1695537;82;20200;-83
2021/12/19 09:39:50;;;;;;;;;;;;;;;6.28;100.00;99589.52;1689095;83;20551;-85
2021/12/19 09:42:19;;;;;;;;;;;;;;;6.26;100.00;99590.13;1685124;83;20221;-84
2021/12/19 09:44:45;;;;;;;;;;;;;;;6.20;100.00;99590.23;1686996;83;20361;-84
2021/12/19 09:47:12;;;;;;;;;;;;;;;6.27;100.00;99586.55;1675708;83;20578;-84
2021/12/19 09:49:41;;;;;;;;;;;;;;;6.27;100.00;99636.36;1682146;83;20527;-84
2021/12/19 09:52:09;;;;;;;;;;;;;;;6.29;100.00;99585.91;1682452;83;20131;-83
2021/12/19 09:54:39;;;;;;;;;;;;;;;6.39;100.00;99595.08;1654077;83;20244;-83
2021/12/19 09:57:13;;;;;;;;;;;;;;;6.39;100.00;99588.03;1689855;83;20504;-82
2021/12/19 09:59:39;;;;;;;;;;;;;;;6.32;100.00;99570.38;1676926;83;20162;-82
2021/12/19 10:02:05;;;;;;;;;;;;;;;6.35;100.00;99568.30;1684734;83;20294;-82
2021/12/19 10:04:39;;;;;;;;;;;;;;;6.31;100.00;99569.56;1688035;83;20184;-82
2021/12/19 10:07:17;;;;;;;;;;;;;;;6.29;100.00;99537.40;1686153;83;20151;-82
2021/12/19 10:09:55;;;;;;;;;;;;;;;6.35;100.00;99521.09;1699482;83;20144;-84
2021/12/19 10:15:00;;;;;;;;;;;;;;;6.29;100.00;99547.88;1695566;83;20293;-84
2021/12/19 10:17:26;;;;;;;;;;;;;;;6.54;98.82;99548.20;1702404;83;20142;-81
2021/12/19 10:19:54;;;;;;;;;;;;;;;6.47;98.52;99552.72;1668057;83;37188;-81
2021/12/19 10:22:35;;;;;;;;;;;;;;;6.53;98.85;99540.02;1698325;83;21930;-79
2021/12/19 10:25:31;;;;;;;;;;;;;;;6.45;98.76;99535.00;1698215;83;20167;-82
2021/12/19 10:27:58;;;;;;;;;;;;;;;6.63;97.94;99522.41;1711281;83;20483;-83
2021/12/19 10:30:29;;;;;;;;;;;;;;;6.60;97.87;99505.66;1694232;83;20218;-83
2021/12/19 10:33:06;;;;;;;;;;;;;;;6.47;97.95;99495.02;1701002;82;20228;-84
2021/12/19 10:35:41;;;;;;;;;;;;;;;6.50;97.90;99513.58;1701422;83;21089;-83
2021/12/19 10:38:15;;;;;;;;;;;;;;;6.53;98.52;99512.47;1694685;83;20188;-81
2021/12/19 10:40:53;;;;;;;;;;;;;;;6.45;98.69;99499.59;1711160;83;20206;-84
2021/12/19 10:43:19;;;;;;;;;;;;;;;6.44;99.22;99505.80;1699651;83;20190;-81
2021/12/19 10:45:52;;;;;;;;;;;;;;;6.52;99.23;99495.89;1702643;83;20270;-80
2021/12/19 10:48:25;;;;;;;;;;;;;;;6.50;99.41;99510.14;1697853;83;21081;-84
2021/12/19 10:51:00;;;;;;;;;;;;;;;6.36;99.08;99508.33;1693751;83;20118;-82
2021/12/19 10:53:36;;;;;;;;;;;;;;;6.53;99.37;99483.63;1688918;83;20192;-83
2021/12/19 10:56:07;;;;;;;;;;;;;;;6.59;99.04;99473.85;1702647;82;20571;-85
2021/12/19 10:58:36;;;;;;;;;;;;;;;6.59;99.14;99484.34;1696248;82;20184;-84
2021/12/19 11:01:13;;;;;;;;;;;;;;;6.67;99.20;99488.36;1685704;83;21222;-85
2021/12/19 11:03:52;;;;;;;;;;;;;;;6.57;99.40;99483.64;1703441;83;20163;-84
2021/12/19 11:06:27;;;;;;;;;;;;;;;6.72;99.41;99486.61;1706461;83;20150;-83
2021/12/19 11:08:58;;;;;;;;;;;;;;;6.68;98.75;99471.66;1677644;83;20683;-83
2021/12/19 11:11:39;;;;;;;;;;;;;;;6.64;98.90;99473.73;1684942;83;20212;-83
2021/12/19 11:14:08;;;;;;;;;;;;;;;6.62;99.17;99470.44;1692651;83;21095;-83
2021/12/19 11:16:34;;;;;;;;;;;;;;;6.69;98.63;99480.34;1689592;83;20133;-82
2021/12/19 11:19:06;;;;;;;;;;;;;;;6.62;98.83;99457.33;1684142;83;20159;-83
2021/12/19 11:21:36;;;;;;;;;;;;;;;6.63;98.81;99459.45;1681739;83;20600;-84
2021/12/19 11:24:15;;;;;;;;;;;;;;;6.64;99.15;99450.12;1682337;83;20173;-82
2021/12/19 11:26:41;;;;;;;;;;;;;;;6.57;99.37;99445.61;1683366;83;20695;-82
2021/12/19 11:29:11;;;;;;;;;;;;;;;6.67;99.34;99450.32;1681634;83;20196;-82
2021/12/19 11:31:45;;;;;;;;;;;;;;;6.62;99.69;99469.63;1678834;83;20161;-83
2021/12/19 11:34:44;;;;;;;;;;;;;;;6.68;99.30;99459.85;1691777;83;20169;-82
2021/12/19 11:37:18;;;;;;;;;;;;;;;6.70;98.92;99444.78;1689604;83;21200;-83
2021/12/19 11:39:49;;;;;;;;;;;;;;;6.62;98.92;99453.88;1678742;83;21819;-81
2021/12/19 11:42:16;;;;;;;;;;;;;;;6.67;98.21;99456.06;1680399;83;20190;-82
2021/12/19 11:45:02;;;;;;;;;;;;;;;6.70;98.13;99451.83;1680324;83;20184;-82
2021/12/19 11:47:35;;;;;;;;;;;;;;;6.64;98.32;99444.87;1683952;83;20224;-83
2021/12/19 11:50:15;;;;;;;;;;;;;;;6.64;98.54;99438.81;1689352;83;20682;-84
2021/12/19 11:52:40;;;;;;;;;;;;;;;6.60;98.44;99442.69;1679961;83;20145;-89
2021/12/19 11:55:17;;;;;;;;;;;;;;;6.72;98.54;99454.63;1682847;83;20615;-87
2021/12/19 11:58:13;;;;;;;;;;;;;;;6.65;98.71;99467.52;1688423;83;20193;-81
2021/12/19 12:00:47;;;;;;;;;;;;;;;6.71;98.82;99450.38;1680498;83;20228;-90
2021/12/19 12:03:15;;;;;;;;;;;;;;;6.63;98.59;99454.20;1681096;83;20139;-88
2021/12/19 12:05:46;;;;;;;;;;;;;;;6.73;98.55;99448.42;1687720;83;22485;-89
2021/12/19 12:08:18;;;;;;;;;;;;;;;6.75;97.80;99433.34;1694263;83;20173;-89
2021/12/19 12:10:56;;;;;;;;;;;;;;;6.75;97.90;99453.02;1695766;83;20187;-91
2021/12/19 12:13:28;;;;;;;;;;;;;;;6.78;97.42;99435.66;1689630;83;20183;-87
2021/12/19 12:16:03;;;;;;;;;;;;;;;6.70;98.25;99421.66;1697298;83;20239;-87
2021/12/19 12:18:34;;;;;;;;;;;;;;;6.78;98.22;99412.05;1695056;83;20246;-87
2021/12/19 12:21:43;;;;;;;;;;;;;;;6.82;97.65;99413.41;1688557;83;20206;-84
2021/12/19 12:23:59;;;;;;;;;;;;;;;6.84;97.44;99413.26;1691745;83;20184;-88
2021/12/19 12:26:28;;;;;;;;;;;;;;;6.72;98.49;99403.96;1696853;83;21441;-87
2021/12/19 12:28:54;;;;;;;;;;;;;;;6.71;98.44;99409.70;1692917;83;20177;-87
2021/12/19 12:31:20;;;;;;;;;;;;;;;6.68;98.97;99398.20;1697864;83;21010;-87
2021/12/19 12:33:45;;;;;;;;;;;;;;;6.56;99.74;99402.83;1696675;83;20251;-86
2021/12/19 12:36:11;;;;;;;;;;;;;;;6.62;99.80;99414.53;1690919;83;20143;-87
2021/12/19 12:38:37;;;;;;;;;;;;;;;6.70;99.62;99396.23;1694690;83;20170;-84
2021/12/19 12:41:08;;;;;;;;;;;;;;;6.57;100.00;99393.15;1693739;83;20242;-86
2021/12/19 12:43:35;;;;;;;;;;;;;;;6.52;100.00;99395.41;1673614;83;20173;-88
2021/12/19 12:46:09;;;;;;;;;;;;;;;6.55;100.00;99401.16;1696852;83;20208;-86
2021/12/19 12:48:58;;;;;;;;;;;;;;;6.54;99.56;99431.02;1691105;83;20517;-90
2021/12/19 12:51:39;;;;;;;;;;;;;;;6.50;99.93;99406.53;1691806;83;20236;-86
2021/12/19 12:54:13;;;;;;;;;;;;;;;6.55;100.00;99397.73;1694420;83;20247;-87
2021/12/19 12:56:47;;;;;;;;;;;;;;;6.47;100.00;99403.72;1697190;83;21198;-86
2021/12/19 12:59:22;;;;;;;;;;;;;;;6.51;100.00;99396.36;1689279;83;20207;-83
2021/12/19 13:01:54;;;;;;;;;;;;;;;6.42;100.00;99427.76;1690586;83;20215;-85
2021/12/19 13:04:21;;;;;;;;;;;;;;;6.45;100.00;99376.33;1694480;83;20172;-85
2021/12/19 13:07:02;;;;;;;;;;;;;;;6.43;100.00;99382.22;1695623;83;20184;-87
2021/12/19 13:09:34;;;;;;;;;;;;;;;6.41;100.00;99381.52;1692362;83;21003;-84
2021/12/19 13:12:03;;;;;;;;;;;;;;;6.36;100.00;99375.09;1687849;83;20250;-83
2021/12/19 13:14:31;;;;;;;;;;;;;;;6.35;99.82;99362.44;1686722;83;20509;-85
2021/12/19 13:17:12;;;;;;;;;;;;;;;6.54;99.62;99368.06;1684619;83;20575;-86
2021/12/19 13:19:47;;;;;;;;;;;;;;;6.44;100.00;99364.17;1679711;83;20557;-84
2021/12/19 13:22:42;;;;;;;;;;;;;;;6.40;100.00;99369.40;1691208;83;21082;-85
2021/12/19 13:25:12;;;;;;;;;;;;;;;6.51;99.80;99362.27;1685966;82;20229;-85
2021/12/19 13:27:41;;;;;;;;;;;;;;;6.38;100.00;99362.64;1687322;83;20267;-85
2021/12/19 13:30:18;;;;;;;;;;;;;;;6.49;100.00;99339.30;1688715;83;20238;-86
2021/12/19 13:32:58;;;;;;;;;;;;;;;6.41;100.00;99333.00;1683125;83;20259;-89
2021/12/19 13:35:32;;;;;;;;;;;;;;;6.36;100.00;99324.77;1687306;83;21083;-88
2021/12/19 13:38:03;;;;;;;;;;;;;;;6.29;100.00;99297.48;1680596;83;20207;-91
2021/12/19 13:40:32;;;;;;;;;;;;;;;6.23;99.30;99312.03;1681969;83;20172;-92
2021/12/19 13:43:06;;;;;;;;;;;;;;;6.25;99.73;99308.77;1688599;83;20183;-92
2021/12/19 13:45:38;;;;;;;;;;;;;;;6.27;100.00;99297.63;1685092;83;20240;-93
2021/12/19 13:48:08;;;;;;;;;;;;;;;6.23;99.71;99300.23;1680767;83;21187;-91
2021/12/19 13:50:41;;;;;;;;;;;;;;;6.09;99.43;99290.24;1688448;83;20125;-89
2021/12/19 13:53:09;;;;;;;;;;;;;;;6.11;98.55;99286.51;1682493;83;20215;-89
2021/12/19 13:55:44;;;;;;;;;;;;;;;6.16;98.65;99324.57;1682809;83;20208;-92